sensor_id;sensor_type;location;lat;lon;timestamp;temperature;humidity
4922;DHT22;16625;53.624;10.106;2023-03-01T00:00:18;-2.50;1.00
4922;DHT22;16625;53.624;10.106;2023-03-01T00:02:45;-2.30;1.00
4922;DHT22;16625;53.624;10.106;2023-03-01T00:05:12;-2.30;1.00
4922;DHT22;16625;53.624;10.106;2023-03-01T00:07:41;-1.10;1.00
4922;DHT22;16625;53.624;10.106;2023-03-01T00:10:10;-2.30;1.00
4922;DHT22;16625;53.624;10.106;2023-03-01T00:12:37;-2.30;1.00
4922;DHT22;16625;53.624;10.106;2023-03-01T00:15:04;-2.40;1.00
4922;DHT22;16625;53.624;10.106;2023-03-01T00:17:31;-2.40;1.00
4922;DHT22;16625;53.624;10.106;2023-03-01T00:19:58;-2.40;1.00
4922;DHT22;16625;53.624;10.106;2023-03-01T00:22:26;-1.30;1.00
4922;DHT22;16625;53.624;10.106;2023-03-01T00:24:56;-1.70;1.00
4922;DHT22;16625;53.624;10.106;2023-03-01T00:27:23;-2.50;1.00
4922;DHT22;16625;53.624;10.106;2023-03-01T00:29:50;-1.90;1.00
4922;DHT22;16625;53.624;10.106;2023-03-01T00:32:18;-1.40;1.00
4922;DHT22;16625;53.624;10.106;2023-03-01T00:34:46;-2.60;1.00
4922;DHT22;16625;53.624;10.106;2023-03-01T00:37:19;-2.60;1.00
4922;DHT22;16625;53.624;10.106;2023-03-01T00:39:46;-2.70;1.00
4922;DHT22;16625;53.624;10.106;2023-03-01T00:42:15;-1.90;61.50
4922;DHT22;16625;53.624;10.106;2023-03-01T00:44:43;-2.70;99.90
4922;DHT22;16625;53.624;10.106;2023-03-01T00:47:10;-2.80;99.90
4922;DHT22;16625;53.624;10.106;2023-03-01T00:49:36;-2.80;99.90
4922;DHT22;16625;53.624;10.106;2023-03-01T00:52:06;-2.70;99.90
4922;DHT22;16625;53.624;10.106;2023-03-01T00:54:32;-2.70;1.00
4922;DHT22;16625;53.624;10.106;2023-03-01T00:56:59;-2.90;1.00
4922;DHT22;16625;53.624;10.106;2023-03-01T00:59:28;-1.90;1.00
4922;DHT22;16625;53.624;10.106;2023-03-01T01:01:55;-2.80;1.00
4922;DHT22;16625;53.624;10.106;2023-03-01T01:04:22;-2.80;1.00
4922;DHT22;16625;53.624;10.106;2023-03-01T01:06:49;-2.80;1.00
4922;DHT22;16625;53.624;10.106;2023-03-01T01:09:17;-2.80;1.00
4922;DHT22;16625;53.624;10.106;2023-03-01T01:11:46;-1.50;16.30
4922;DHT22;16625;53.624;10.106;2023-03-01T01:14:14;-3.00;99.90
4922;DHT22;16625;53.624;10.106;2023-03-01T01:16:42;-1.90;99.90
4922;DHT22;16625;53.624;10.106;2023-03-01T01:19:10;-2.90;99.90
4922;DHT22;16625;53.624;10.106;2023-03-01T01:21:39;-2.80;1.00
4922;DHT22;16625;53.624;10.106;2023-03-01T01:24:08;-3.00;1.00
4922;DHT22;16625;53.624;10.106;2023-03-01T01:26:38;-3.70;1.00
4922;DHT22;16625;53.624;10.106;2023-03-01T01:29:07;-2.10;12.10
4922;DHT22;16625;53.624;10.106;2023-03-01T01:31:36;-2.90;40.60
4922;DHT22;16625;53.624;10.106;2023-03-01T01:34:05;-3.00;31.50
4922;DHT22;16625;53.624;10.106;2023-03-01T01:36:34;-3.00;99.90
4922;DHT22;16625;53.624;10.106;2023-03-01T01:39:01;-3.10;99.90
4922;DHT22;16625;53.624;10.106;2023-03-01T01:41:28;-2.00;99.90
4922;DHT22;16625;53.624;10.106;2023-03-01T01:44:12;-3.00;99.90
4922;DHT22;16625;53.624;10.106;2023-03-01T01:46:41;-3.00;99.90
4922;DHT22;16625;53.624;10.106;2023-03-01T01:49:23;-3.00;99.90
4922;DHT22;16625;53.624;10.106;2023-03-01T01:51:55;-3.20;1.00
4922;DHT22;16625;53.624;10.106;2023-03-01T01:54:26;-2.30;1.00
4922;DHT22;16625;53.624;10.106;2023-03-01T01:56:57;-3.00;1.00
4922;DHT22;16625;53.624;10.106;2023-03-01T01:59:26;-3.20;1.00
4922;DHT22;16625;53.624;10.106;2023-03-01T02:01:55;-1.70;79.20
4922;DHT22;16625;53.624;10.106;2023-03-01T02:04:26;-3.20;99.30
4922;DHT22;16625;53.624;10.106;2023-03-01T02:06:59;-3.20;99.90
4922;DHT22;16625;53.624;10.106;2023-03-01T02:09:28;-3.20;99.90
4922;DHT22;16625;53.624;10.106;2023-03-01T02:11:57;-3.10;99.90
4922;DHT22;16625;53.624;10.106;2023-03-01T02:14:25;-3.20;99.90
4922;DHT22;16625;53.624;10.106;2023-03-01T02:16:52;-3.10;99.90
4922;DHT22;16625;53.624;10.106;2023-03-01T02:19:30;-3.30;99.90
4922;DHT22;16625;53.624;10.106;2023-03-01T02:22:02;-3.10;1.00
4922;DHT22;16625;53.624;10.106;2023-03-01T02:24:36;-3.20;1.00
4922;DHT22;16625;53.624;10.106;2023-03-01T02:27:09;-1.70;1.00
4922;DHT22;16625;53.624;10.106;2023-03-01T02:29:38;-3.20;1.00
4922;DHT22;16625;53.624;10.106;2023-03-01T02:32:06;-3.10;1.00
4922;DHT22;16625;53.624;10.106;2023-03-01T02:34:33;-3.10;99.90
4922;DHT22;16625;53.624;10.106;2023-03-01T02:37:03;-3.20;99.90
4922;DHT22;16625;53.624;10.106;2023-03-01T02:39:34;-3.10;99.90
4922;DHT22;16625;53.624;10.106;2023-03-01T02:42:10;-3.10;99.90
4922;DHT22;16625;53.624;10.106;2023-03-01T02:44:39;-3.10;99.90
4922;DHT22;16625;53.624;10.106;2023-03-01T02:47:06;-3.10;1.00
4922;DHT22;16625;53.624;10.106;2023-03-01T02:49:34;-3.20;1.00
4922;DHT22;16625;53.624;10.106;2023-03-01T02:52:17;-3.10;1.00
4922;DHT22;16625;53.624;10.106;2023-03-01T02:54:49;-3.20;1.00
4922;DHT22;16625;53.624;10.106;2023-03-01T02:57:18;-3.30;1.00
4922;DHT22;16625;53.624;10.106;2023-03-01T02:59:47;-3.30;54.60
4922;DHT22;16625;53.624;10.106;2023-03-01T03:02:23;-3.20;99.90
4922;DHT22;16625;53.624;10.106;2023-03-01T03:05:05;-3.20;99.90
4922;DHT22;16625;53.624;10.106;2023-03-01T03:07:34;-3.20;99.90
4922;DHT22;16625;53.624;10.106;2023-03-01T03:10:02;-3.30;99.90
4922;DHT22;16625;53.624;10.106;2023-03-01T03:12:29;-2.50;99.90
4922;DHT22;16625;53.624;10.106;2023-03-01T03:14:57;-2.30;99.90
4922;DHT22;16625;53.624;10.106;2023-03-01T03:17:24;-3.10;99.90
4922;DHT22;16625;53.624;10.106;2023-03-01T03:19:51;-2.20;99.90
4922;DHT22;16625;53.624;10.106;2023-03-01T03:22:20;-3.90;99.90
4922;DHT22;16625;53.624;10.106;2023-03-01T03:24:47;-3.10;99.90
4922;DHT22;16625;53.624;10.106;2023-03-01T03:27:14;-2.00;99.90
4922;DHT22;16625;53.624;10.106;2023-03-01T03:29:41;-2.10;1.00
4922;DHT22;16625;53.624;10.106;2023-03-01T03:32:09;-2.90;1.00
4922;DHT22;16625;53.624;10.106;2023-03-01T03:34:36;-2.70;1.00
4922;DHT22;16625;53.624;10.106;2023-03-01T03:37:03;-2.60;1.00
4922;DHT22;16625;53.624;10.106;2023-03-01T03:39:50;-2.10;1.00
4922;DHT22;16625;53.624;10.106;2023-03-01T03:42:20;-2.40;1.00
4922;DHT22;16625;53.624;10.106;2023-03-01T03:44:47;-2.30;1.00
4922;DHT22;16625;53.624;10.106;2023-03-01T03:47:15;-2.20;99.90
4922;DHT22;16625;53.624;10.106;2023-03-01T03:49:42;-2.10;99.90
4922;DHT22;16625;53.624;10.106;2023-03-01T03:52:09;-1.00;99.90
4922;DHT22;16625;53.624;10.106;2023-03-01T03:54:39;-0.90;57.80
4922;DHT22;16625;53.624;10.106;2023-03-01T03:57:06;-0.80;1.00
4922;DHT22;16625;53.624;10.106;2023-03-01T03:59:32;-1.00;99.90
4922;DHT22;16625;53.624;10.106;2023-03-01T04:02:01;-1.80;99.90
4922;DHT22;16625;53.624;10.106;2023-03-01T04:04:29;-1.50;77.00
4922;DHT22;16625;53.624;10.106;2023-03-01T04:06:56;-0.60;1.00
4922;DHT22;16625;53.624;10.106;2023-03-01T04:09:23;-1.60;1.00
4922;DHT22;16625;53.624;10.106;2023-03-01T04:11:50;-1.50;99.90
4922;DHT22;16625;53.624;10.106;2023-03-01T04:14:16;-1.60;99.90
4922;DHT22;16625;53.624;10.106;2023-03-01T04:16:43;-1.70;1.00
4922;DHT22;16625;53.624;10.106;2023-03-01T04:19:10;-1.50;1.00
4922;DHT22;16625;53.624;10.106;2023-03-01T04:21:39;-1.40;1.00
4922;DHT22;16625;53.624;10.106;2023-03-01T04:24:06;-1.40;99.90
4922;DHT22;16625;53.624;10.106;2023-03-01T04:26:34;-1.50;99.90
4922;DHT22;16625;53.624;10.106;2023-03-01T04:29:01;-1.40;99.90
4922;DHT22;16625;53.624;10.106;2023-03-01T04:31:28;-1.00;99.90
4922;DHT22;16625;53.624;10.106;2023-03-01T04:33:55;-1.50;99.90
4922;DHT22;16625;53.624;10.106;2023-03-01T04:36:24;-1.40;99.90
4922;DHT22;16625;53.624;10.106;2023-03-01T04:38:54;-1.30;99.90
4922;DHT22;16625;53.624;10.106;2023-03-01T04:41:23;-1.20;99.90
4922;DHT22;16625;53.624;10.106;2023-03-01T04:43:51;-1.10;99.90
4922;DHT22;16625;53.624;10.106;2023-03-01T04:46:20;-0.90;40.60
4922;DHT22;16625;53.624;10.106;2023-03-01T04:48:47;-1.00;1.00
4922;DHT22;16625;53.624;10.106;2023-03-01T04:51:15;-0.90;99.90
4922;DHT22;16625;53.624;10.106;2023-03-01T04:53:44;-1.00;99.90
4922;DHT22;16625;53.624;10.106;2023-03-01T04:56:16;-0.10;99.90
4922;DHT22;16625;53.624;10.106;2023-03-01T04:58:43;-0.90;99.90
4922;DHT22;16625;53.624;10.106;2023-03-01T05:01:13;0.50;99.90
4922;DHT22;16625;53.624;10.106;2023-03-01T05:03:42;-0.80;99.90
4922;DHT22;16625;53.624;10.106;2023-03-01T05:06:10;-0.90;99.90
4922;DHT22;16625;53.624;10.106;2023-03-01T05:08:37;-0.70;18.90
4922;DHT22;16625;53.624;10.106;2023-03-01T05:11:05;-0.10;1.00
4922;DHT22;16625;53.624;10.106;2023-03-01T05:13:37;-0.80;1.00
4922;DHT22;16625;53.624;10.106;2023-03-01T05:16:06;-0.60;1.00
4922;DHT22;16625;53.624;10.106;2023-03-01T05:18:36;-0.60;1.00
4922;DHT22;16625;53.624;10.106;2023-03-01T05:21:08;-0.70;1.00
4922;DHT22;16625;53.624;10.106;2023-03-01T05:23:35;-0.50;1.00
4922;DHT22;16625;53.624;10.106;2023-03-01T05:26:04;-0.40;1.00
4922;DHT22;16625;53.624;10.106;2023-03-01T05:28:32;-0.40;99.90
4922;DHT22;16625;53.624;10.106;2023-03-01T05:31:00;0.20;99.90
4922;DHT22;16625;53.624;10.106;2023-03-01T05:33:30;-0.60;99.90
4922;DHT22;16625;53.624;10.106;2023-03-01T05:35:59;0.90;99.90
4922;DHT22;16625;53.624;10.106;2023-03-01T05:38:27;0.10;99.90
4922;DHT22;16625;53.624;10.106;2023-03-01T05:40:54;0.60;99.90
4922;DHT22;16625;53.624;10.106;2023-03-01T05:43:23;0.70;99.90
4922;DHT22;16625;53.624;10.106;2023-03-01T05:45:50;-0.40;99.90
4922;DHT22;16625;53.624;10.106;2023-03-01T05:48:19;0.50;99.90
4922;DHT22;16625;53.624;10.106;2023-03-01T05:50:46;-0.50;99.90
4922;DHT22;16625;53.624;10.106;2023-03-01T05:53:16;-0.40;99.90
4922;DHT22;16625;53.624;10.106;2023-03-01T05:55:44;-0.40;22.00
4922;DHT22;16625;53.624;10.106;2023-03-01T05:58:13;-0.50;1.00
4922;DHT22;16625;53.624;10.106;2023-03-01T06:00:41;-0.50;1.00
4922;DHT22;16625;53.624;10.106;2023-03-01T06:03:10;0.40;1.00
4922;DHT22;16625;53.624;10.106;2023-03-01T06:05:39;-0.40;1.00
4922;DHT22;16625;53.624;10.106;2023-03-01T06:08:07;-0.50;99.90
4922;DHT22;16625;53.624;10.106;2023-03-01T06:10:35;-0.50;99.90
4922;DHT22;16625;53.624;10.106;2023-03-01T06:13:03;0.20;99.90
4922;DHT22;16625;53.624;10.106;2023-03-01T06:15:30;0.20;1.00
4922;DHT22;16625;53.624;10.106;2023-03-01T06:17:57;0.40;1.00
4922;DHT22;16625;53.624;10.106;2023-03-01T06:20:25;0.70;3.80
4922;DHT22;16625;53.624;10.106;2023-03-01T06:22:54;0.60;26.90
4922;DHT22;16625;53.624;10.106;2023-03-01T06:25:23;0.20;15.00
4922;DHT22;16625;53.624;10.106;2023-03-01T06:27:50;-0.40;1.00
4922;DHT22;16625;53.624;10.106;2023-03-01T06:30:20;0.90;7.60
4922;DHT22;16625;53.624;10.106;2023-03-01T06:32:47;-0.20;23.80
4922;DHT22;16625;53.624;10.106;2023-03-01T06:35:15;-0.20;29.20
4922;DHT22;16625;53.624;10.106;2023-03-01T06:37:44;-0.30;2.10
4922;DHT22;16625;53.624;10.106;2023-03-01T06:40:13;-0.40;21.50
4922;DHT22;16625;53.624;10.106;2023-03-01T06:42:42;0.10;1.00
4922;DHT22;16625;53.624;10.106;2023-03-01T06:45:10;1.00;1.00
4922;DHT22;16625;53.624;10.106;2023-03-01T06:47:37;0.20;99.90
4922;DHT22;16625;53.624;10.106;2023-03-01T06:50:04;0.50;99.90
4922;DHT22;16625;53.624;10.106;2023-03-01T06:52:31;0.40;99.90
4922;DHT22;16625;53.624;10.106;2023-03-01T06:54:58;1.90;12.60
4922;DHT22;16625;53.624;10.106;2023-03-01T06:57:27;0.60;1.00
4922;DHT22;16625;53.624;10.106;2023-03-01T06:59:54;0.50;1.00
4922;DHT22;16625;53.624;10.106;2023-03-01T07:02:21;2.20;1.00
4922;DHT22;16625;53.624;10.106;2023-03-01T07:04:49;2.30;99.90
4922;DHT22;16625;53.624;10.106;2023-03-01T07:07:17;1.40;99.90
4922;DHT22;16625;53.624;10.106;2023-03-01T07:09:44;1.00;99.90
4922;DHT22;16625;53.624;10.106;2023-03-01T07:12:11;2.10;99.90
4922;DHT22;16625;53.624;10.106;2023-03-01T07:14:41;2.80;99.90
4922;DHT22;16625;53.624;10.106;2023-03-01T07:17:10;2.50;1.00
4922;DHT22;16625;53.624;10.106;2023-03-01T07:19:37;1.20;99.90
4922;DHT22;16625;53.624;10.106;2023-03-01T07:22:04;1.30;99.90
4922;DHT22;16625;53.624;10.106;2023-03-01T07:24:33;1.50;99.90
4922;DHT22;16625;53.624;10.106;2023-03-01T07:27:00;3.10;93.70
4922;DHT22;16625;53.624;10.106;2023-03-01T07:29:27;3.10;62.70
4922;DHT22;16625;53.624;10.106;2023-03-01T07:31:59;1.50;1.00
4922;DHT22;16625;53.624;10.106;2023-03-01T07:34:26;1.70;1.00
4922;DHT22;16625;53.624;10.106;2023-03-01T07:36:53;2.50;1.00
4922;DHT22;16625;53.624;10.106;2023-03-01T07:39:44;1.70;99.90
4922;DHT22;16625;53.624;10.106;2023-03-01T07:42:32;2.10;99.90
4922;DHT22;16625;53.624;10.106;2023-03-01T07:45:02;1.90;99.90
4922;DHT22;16625;53.624;10.106;2023-03-01T07:47:30;2.20;99.90
4922;DHT22;16625;53.624;10.106;2023-03-01T07:49:57;2.10;99.90
4922;DHT22;16625;53.624;10.106;2023-03-01T07:52:24;3.20;99.90
4922;DHT22;16625;53.624;10.106;2023-03-01T07:54:51;3.40;99.90
4922;DHT22;16625;53.624;10.106;2023-03-01T07:57:18;2.40;1.00
4922;DHT22;16625;53.624;10.106;2023-03-01T07:59:45;3.80;2.70
4922;DHT22;16625;53.624;10.106;2023-03-01T08:02:12;4.00;1.00
4922;DHT22;16625;53.624;10.106;2023-03-01T08:04:42;2.40;1.00
4922;DHT22;16625;53.624;10.106;2023-03-01T08:07:08;2.50;1.00
4922;DHT22;16625;53.624;10.106;2023-03-01T08:09:36;2.50;1.00
4922;DHT22;16625;53.624;10.106;2023-03-01T08:12:03;3.70;1.00
4922;DHT22;16625;53.624;10.106;2023-03-01T08:14:32;3.00;1.00
4922;DHT22;16625;53.624;10.106;2023-03-01T08:16:59;3.00;99.90
4922;DHT22;16625;53.624;10.106;2023-03-01T08:19:29;3.00;99.90
4922;DHT22;16625;53.624;10.106;2023-03-01T08:21:57;3.20;99.90
4922;DHT22;16625;53.624;10.106;2023-03-01T08:24:25;4.40;99.90
4922;DHT22;16625;53.624;10.106;2023-03-01T08:26:52;3.30;99.90
4922;DHT22;16625;53.624;10.106;2023-03-01T08:29:19;3.20;99.90
4922;DHT22;16625;53.624;10.106;2023-03-01T08:31:47;3.30;99.90
4922;DHT22;16625;53.624;10.106;2023-03-01T08:34:16;3.20;99.90
4922;DHT22;16625;53.624;10.106;2023-03-01T08:36:44;3.70;99.90
4922;DHT22;16625;53.624;10.106;2023-03-01T08:39:14;3.30;99.90
4922;DHT22;16625;53.624;10.106;2023-03-01T08:41:42;4.30;99.90
4922;DHT22;16625;53.624;10.106;2023-03-01T08:44:10;3.60;99.90
4922;DHT22;16625;53.624;10.106;2023-03-01T08:46:39;3.70;99.90
4922;DHT22;16625;53.624;10.106;2023-03-01T08:49:07;4.70;99.90
4922;DHT22;16625;53.624;10.106;2023-03-01T08:51:35;4.60;99.90
4922;DHT22;16625;53.624;10.106;2023-03-01T08:54:03;4.80;99.90
4922;DHT22;16625;53.624;10.106;2023-03-01T08:56:32;4.70;99.90
4922;DHT22;16625;53.624;10.106;2023-03-01T08:58:59;4.60;99.90
4922;DHT22;16625;53.624;10.106;2023-03-01T09:01:26;5.40;99.90
4922;DHT22;16625;53.624;10.106;2023-03-01T09:03:53;4.30;99.90
4922;DHT22;16625;53.624;10.106;2023-03-01T09:06:20;4.40;99.90
4922;DHT22;16625;53.624;10.106;2023-03-01T09:08:49;5.20;99.90
4922;DHT22;16625;53.624;10.106;2023-03-01T09:11:18;5.20;99.90
4922;DHT22;16625;53.624;10.106;2023-03-01T09:13:47;4.70;99.90
4922;DHT22;16625;53.624;10.106;2023-03-01T09:16:17;5.00;99.90
4922;DHT22;16625;53.624;10.106;2023-03-01T09:18:49;4.50;99.90
4922;DHT22;16625;53.624;10.106;2023-03-01T09:21:17;4.80;99.90
4922;DHT22;16625;53.624;10.106;2023-03-01T09:23:45;4.30;99.90
4922;DHT22;16625;53.624;10.106;2023-03-01T09:26:14;4.40;99.90
4922;DHT22;16625;53.624;10.106;2023-03-01T09:28:42;5.20;99.90
4922;DHT22;16625;53.624;10.106;2023-03-01T09:31:11;4.80;99.90
4922;DHT22;16625;53.624;10.106;2023-03-01T09:33:40;4.80;99.90
4922;DHT22;16625;53.624;10.106;2023-03-01T09:36:11;5.40;99.90
4922;DHT22;16625;53.624;10.106;2023-03-01T09:38:39;4.80;99.90
4922;DHT22;16625;53.624;10.106;2023-03-01T09:41:11;5.60;99.90
4922;DHT22;16625;53.624;10.106;2023-03-01T09:43:47;5.00;99.90
4922;DHT22;16625;53.624;10.106;2023-03-01T09:46:22;5.00;99.90
4922;DHT22;16625;53.624;10.106;2023-03-01T09:48:54;5.80;99.90
4922;DHT22;16625;53.624;10.106;2023-03-01T09:51:26;5.60;71.00
4922;DHT22;16625;53.624;10.106;2023-03-01T09:53:53;5.70;67.70
4922;DHT22;16625;53.624;10.106;2023-03-01T09:56:28;5.90;40.40
4922;DHT22;16625;53.624;10.106;2023-03-01T09:59:02;5.10;86.60
4922;DHT22;16625;53.624;10.106;2023-03-01T10:01:39;6.50;99.90
4922;DHT22;16625;53.624;10.106;2023-03-01T10:04:27;6.20;11.10
4922;DHT22;16625;53.624;10.106;2023-03-01T10:07:05;5.60;1.00
4922;DHT22;16625;53.624;10.106;2023-03-01T10:09:36;6.00;1.00
4922;DHT22;16625;53.624;10.106;2023-03-01T10:12:09;5.50;1.00
4922;DHT22;16625;53.624;10.106;2023-03-01T10:14:40;6.40;1.00
4922;DHT22;16625;53.624;10.106;2023-03-01T10:17:24;6.40;1.00
4922;DHT22;16625;53.624;10.106;2023-03-01T10:19:52;6.10;22.70
4922;DHT22;16625;53.624;10.106;2023-03-01T10:22:22;6.00;99.90
4922;DHT22;16625;53.624;10.106;2023-03-01T10:24:52;5.50;99.90
4922;DHT22;16625;53.624;10.106;2023-03-01T10:27:23;6.30;99.90
4922;DHT22;16625;53.624;10.106;2023-03-01T10:29:58;6.40;99.90
4922;DHT22;16625;53.624;10.106;2023-03-01T10:32:30;6.00;99.90
4922;DHT22;16625;53.624;10.106;2023-03-01T10:34:57;6.20;99.90
4922;DHT22;16625;53.624;10.106;2023-03-01T10:37:25;6.10;99.90
4922;DHT22;16625;53.624;10.106;2023-03-01T10:39:58;5.50;99.90
4922;DHT22;16625;53.624;10.106;2023-03-01T10:42:30;5.60;99.90
4922;DHT22;16625;53.624;10.106;2023-03-01T10:44:58;6.60;99.90
4922;DHT22;16625;53.624;10.106;2023-03-01T10:47:43;6.40;99.90
4922;DHT22;16625;53.624;10.106;2023-03-01T10:50:19;5.80;99.90
4922;DHT22;16625;53.624;10.106;2023-03-01T10:52:57;5.90;99.90
4922;DHT22;16625;53.624;10.106;2023-03-01T10:55:27;6.90;99.90
4922;DHT22;16625;53.624;10.106;2023-03-01T10:58:11;7.00;99.90
4922;DHT22;16625;53.624;10.106;2023-03-01T11:00:48;6.70;99.90
4922;DHT22;16625;53.624;10.106;2023-03-01T11:03:21;6.60;99.90
4922;DHT22;16625;53.624;10.106;2023-03-01T11:05:58;6.70;99.90
4922;DHT22;16625;53.624;10.106;2023-03-01T11:08:34;7.10;99.90
4922;DHT22;16625;53.624;10.106;2023-03-01T11:11:21;7.10;99.90
4922;DHT22;16625;53.624;10.106;2023-03-01T11:13:52;7.00;99.90
4922;DHT22;16625;53.624;10.106;2023-03-01T11:16:24;6.90;99.90
4922;DHT22;16625;53.624;10.106;2023-03-01T11:19:07;7.40;99.90
4922;DHT22;16625;53.624;10.106;2023-03-01T11:21:42;7.30;99.90
4922;DHT22;16625;53.624;10.106;2023-03-01T11:24:14;7.10;97.60
4922;DHT22;16625;53.624;10.106;2023-03-01T11:26:45;6.70;99.90
4922;DHT22;16625;53.624;10.106;2023-03-01T11:29:26;6.70;1.00
4922;DHT22;16625;53.624;10.106;2023-03-01T11:31:57;6.70;1.00
4922;DHT22;16625;53.624;10.106;2023-03-01T11:34:39;6.70;1.00
4922;DHT22;16625;53.624;10.106;2023-03-01T11:37:16;6.70;1.00
4922;DHT22;16625;53.624;10.106;2023-03-01T11:39:54;7.20;23.00
4922;DHT22;16625;53.624;10.106;2023-03-01T11:42:34;8.00;1.00
4922;DHT22;16625;53.624;10.106;2023-03-01T11:45:08;8.00;6.30
4922;DHT22;16625;53.624;10.106;2023-03-01T11:47:55;7.10;1.00
4922;DHT22;16625;53.624;10.106;2023-03-01T11:50:30;7.20;1.00
4922;DHT22;16625;53.624;10.106;2023-03-01T11:53:09;7.10;1.00
4922;DHT22;16625;53.624;10.106;2023-03-01T11:55:52;7.10;1.00
4922;DHT22;16625;53.624;10.106;2023-03-01T11:58:34;8.00;1.00
4922;DHT22;16625;53.624;10.106;2023-03-01T12:01:15;7.60;1.00
4922;DHT22;16625;53.624;10.106;2023-03-01T12:04:12;7.30;1.00
4922;DHT22;16625;53.624;10.106;2023-03-01T12:06:56;7.40;1.00
4922;DHT22;16625;53.624;10.106;2023-03-01T12:09:42;7.40;1.00
4922;DHT22;16625;53.624;10.106;2023-03-01T12:12:27;8.10;1.00
4922;DHT22;16625;53.624;10.106;2023-03-01T12:15:01;8.30;99.90
4922;DHT22;16625;53.624;10.106;2023-03-01T12:17:47;8.50;99.90
4922;DHT22;16625;53.624;10.106;2023-03-01T12:20:25;7.70;99.90
4922;DHT22;16625;53.624;10.106;2023-03-01T12:23:28;7.70;99.90
4922;DHT22;16625;53.624;10.106;2023-03-01T12:26:26;7.70;99.90
4922;DHT22;16625;53.624;10.106;2023-03-01T12:32:50;8.00;99.90
4922;DHT22;16625;53.624;10.106;2023-03-01T12:39:26;7.90;99.90
4922;DHT22;16625;53.624;10.106;2023-03-01T12:42:30;7.90;99.90
4922;DHT22;16625;53.624;10.106;2023-03-01T12:46:05;8.80;99.90
4922;DHT22;16625;53.624;10.106;2023-03-01T12:59:51;8.30;99.90
4922;DHT22;16625;53.624;10.106;2023-03-01T13:02:54;8.10;99.90
4922;DHT22;16625;53.624;10.106;2023-03-01T13:06:04;8.10;99.90
4922;DHT22;16625;53.624;10.106;2023-03-01T13:09:11;7.90;99.90
4922;DHT22;16625;53.624;10.106;2023-03-01T13:18:28;8.10;99.90
4922;DHT22;16625;53.624;10.106;2023-03-01T13:21:33;8.10;99.90
4922;DHT22;16625;53.624;10.106;2023-03-01T13:25:47;8.20;99.90
4922;DHT22;16625;53.624;10.106;2023-03-01T13:55:45;7.70;26.60
4922;DHT22;16625;53.624;10.106;2023-03-01T13:58:26;8.10;18.40
4922;DHT22;16625;53.624;10.106;2023-03-01T14:01:24;7.90;1.00
4922;DHT22;16625;53.624;10.106;2023-03-01T14:03:57;8.50;1.00
4922;DHT22;16625;53.624;10.106;2023-03-01T14:06:36;8.70;10.50
4922;DHT22;16625;53.624;10.106;2023-03-01T14:09:23;8.40;1.00
4922;DHT22;16625;53.624;10.106;2023-03-01T14:16:03;8.00;1.00
4922;DHT22;16625;53.624;10.106;2023-03-01T14:22:52;7.90;1.00
4922;DHT22;16625;53.624;10.106;2023-03-01T14:25:24;8.80;1.00
4922;DHT22;16625;53.624;10.106;2023-03-01T14:27:55;8.50;1.00
4922;DHT22;16625;53.624;10.106;2023-03-01T14:30:24;7.80;1.00
4922;DHT22;16625;53.624;10.106;2023-03-01T14:32:56;8.80;1.00
4922;DHT22;16625;53.624;10.106;2023-03-01T14:35:26;8.50;1.00
4922;DHT22;16625;53.624;10.106;2023-03-01T14:37:57;7.90;1.00
4922;DHT22;16625;53.624;10.106;2023-03-01T14:40:27;8.80;1.00
4922;DHT22;16625;53.624;10.106;2023-03-01T14:42:56;8.80;1.00
4922;DHT22;16625;53.624;10.106;2023-03-01T14:45:26;8.90;1.00
4922;DHT22;16625;53.624;10.106;2023-03-01T14:47:55;7.80;1.00
4922;DHT22;16625;53.624;10.106;2023-03-01T14:50:27;7.70;1.00
4922;DHT22;16625;53.624;10.106;2023-03-01T14:52:58;8.30;1.00
4922;DHT22;16625;53.624;10.106;2023-03-01T14:55:31;8.00;1.00
4922;DHT22;16625;53.624;10.106;2023-03-01T14:58:03;7.60;1.00
4922;DHT22;16625;53.624;10.106;2023-03-01T15:00:32;8.60;1.00
4922;DHT22;16625;53.624;10.106;2023-03-01T15:03:07;8.60;1.00
4922;DHT22;16625;53.624;10.106;2023-03-01T15:05:40;8.30;1.00
4922;DHT22;16625;53.624;10.106;2023-03-01T15:08:17;7.80;1.00
4922;DHT22;16625;53.624;10.106;2023-03-01T15:10:58;8.40;1.00
4922;DHT22;16625;53.624;10.106;2023-03-01T15:13:30;7.70;1.00
4922;DHT22;16625;53.624;10.106;2023-03-01T15:16:04;8.40;1.00
4922;DHT22;16625;53.624;10.106;2023-03-01T15:18:43;8.30;1.00
4922;DHT22;16625;53.624;10.106;2023-03-01T15:21:17;8.30;1.00
4922;DHT22;16625;53.624;10.106;2023-03-01T15:23:49;7.20;1.00
4922;DHT22;16625;53.624;10.106;2023-03-01T15:26:29;7.60;1.00
4922;DHT22;16625;53.624;10.106;2023-03-01T15:29:00;7.10;1.00
4922;DHT22;16625;53.624;10.106;2023-03-01T15:31:37;7.60;1.00
4922;DHT22;16625;53.624;10.106;2023-03-01T15:34:11;7.00;1.00
4922;DHT22;16625;53.624;10.106;2023-03-01T15:36:48;7.00;1.00
4922;DHT22;16625;53.624;10.106;2023-03-01T15:39:39;6.90;1.00
4922;DHT22;16625;53.624;10.106;2023-03-01T15:42:10;7.90;1.00
4922;DHT22;16625;53.624;10.106;2023-03-01T15:44:40;7.80;1.00
4922;DHT22;16625;53.624;10.106;2023-03-01T15:47:34;6.90;1.00
4922;DHT22;16625;53.624;10.106;2023-03-01T15:50:11;6.80;1.00
4922;DHT22;16625;53.624;10.106;2023-03-01T15:52:43;6.80;1.00
4922;DHT22;16625;53.624;10.106;2023-03-01T15:55:36;7.60;30.80
4922;DHT22;16625;53.624;10.106;2023-03-01T15:58:17;7.50;83.70
4922;DHT22;16625;53.624;10.106;2023-03-01T16:01:01;7.10;99.90
4922;DHT22;16625;53.624;10.106;2023-03-01T16:03:43;5.30;99.90
4922;DHT22;16625;53.624;10.106;2023-03-01T16:06:29;5.70;99.90
4922;DHT22;16625;53.624;10.106;2023-03-01T16:09:04;6.20;99.90
4922;DHT22;16625;53.624;10.106;2023-03-01T16:11:35;6.10;99.90
4922;DHT22;16625;53.624;10.106;2023-03-01T16:14:08;6.80;99.90
4922;DHT22;16625;53.624;10.106;2023-03-01T16:16:53;5.60;1.00
4922;DHT22;16625;53.624;10.106;2023-03-01T16:19:29;5.90;1.00
4922;DHT22;16625;53.624;10.106;2023-03-01T16:22:10;5.90;1.00
4922;DHT22;16625;53.624;10.106;2023-03-01T16:24:53;5.80;1.00
4922;DHT22;16625;53.624;10.106;2023-03-01T16:27:27;5.80;45.90
4922;DHT22;16625;53.624;10.106;2023-03-01T16:29:55;5.60;76.50
4922;DHT22;16625;53.624;10.106;2023-03-01T16:32:23;4.40;99.90
4922;DHT22;16625;53.624;10.106;2023-03-01T16:34:51;5.50;99.90
4922;DHT22;16625;53.624;10.106;2023-03-01T16:37:19;6.30;99.90
4922;DHT22;16625;53.624;10.106;2023-03-01T16:39:47;5.30;99.90
4922;DHT22;16625;53.624;10.106;2023-03-01T16:42:16;6.60;99.90
4922;DHT22;16625;53.624;10.106;2023-03-01T16:44:43;5.30;99.90
4922;DHT22;16625;53.624;10.106;2023-03-01T16:47:10;5.20;99.90
4922;DHT22;16625;53.624;10.106;2023-03-01T16:49:37;6.50;99.90
4922;DHT22;16625;53.624;10.106;2023-03-01T16:52:04;6.30;99.90
4922;DHT22;16625;53.624;10.106;2023-03-01T16:54:32;6.20;99.90
4922;DHT22;16625;53.624;10.106;2023-03-01T16:56:59;4.90;99.90
4922;DHT22;16625;53.624;10.106;2023-03-01T16:59:26;4.80;99.90
4922;DHT22;16625;53.624;10.106;2023-03-01T17:01:53;5.50;99.90
4922;DHT22;16625;53.624;10.106;2023-03-01T17:04:20;5.80;99.90
4922;DHT22;16625;53.624;10.106;2023-03-01T17:06:47;4.60;1.00
4922;DHT22;16625;53.624;10.106;2023-03-01T17:09:14;4.70;1.00
4922;DHT22;16625;53.624;10.106;2023-03-01T17:11:49;5.50;67.60
4922;DHT22;16625;53.624;10.106;2023-03-01T17:14:19;5.00;99.90
4922;DHT22;16625;53.624;10.106;2023-03-01T17:17:00;5.20;99.90
4922;DHT22;16625;53.624;10.106;2023-03-01T17:19:41;5.20;99.90